Terminal Aerodrome Forecast
Issued by NWS

Home | Current Version | Previous Version | Text Only | Print | Product List | Glossary On
Versions: 1 2 3 4 5 6 7 8 9 10 11 12 13
727
FTUS46 KSEW 251120
TAFCLM
TAF
KCLM 251120Z 2512/2612 27008KT P6SM SKC
     FM251600 31011KT P6SM SCT040
     FM252300 29014G23KT P6SM BKN040
     FM260800 27011KT P6SM BKN020 OVC040=

USA.gov is the U.S. government's official web portal to all federal, state and local government web resources and services.